sensor_id;sensor_type;location;lat;lon;timestamp;temperature;humidity
45643;DHT22;31358;46.008;11.144;2023-05-10T00:01:47;14.60;99.90
45643;DHT22;31358;46.008;11.144;2023-05-10T00:04:12;14.60;99.90
45643;DHT22;31358;46.008;11.144;2023-05-10T00:06:38;14.50;99.90
45643;DHT22;31358;46.008;11.144;2023-05-10T00:09:04;14.60;99.90
45643;DHT22;31358;46.008;11.144;2023-05-10T00:11:29;14.70;99.90
45643;DHT22;31358;46.008;11.144;2023-05-10T00:13:55;14.60;99.90
45643;DHT22;31358;46.008;11.144;2023-05-10T00:16:21;14.60;99.90
45643;DHT22;31358;46.008;11.144;2023-05-10T00:18:46;14.50;99.90
45643;DHT22;31358;46.008;11.144;2023-05-10T00:21:12;14.60;99.90
45643;DHT22;31358;46.008;11.144;2023-05-10T00:23:38;14.50;99.90
45643;DHT22;31358;46.008;11.144;2023-05-10T00:26:03;14.40;99.90
45643;DHT22;31358;46.008;11.144;2023-05-10T00:28:29;14.40;99.90
45643;DHT22;31358;46.008;11.144;2023-05-10T00:30:55;14.40;99.90
45643;DHT22;31358;46.008;11.144;2023-05-10T00:33:21;14.40;99.90
45643;DHT22;31358;46.008;11.144;2023-05-10T00:35:47;14.40;99.90
45643;DHT22;31358;46.008;11.144;2023-05-10T00:38:12;14.50;99.90
45643;DHT22;31358;46.008;11.144;2023-05-10T00:40:38;14.50;99.90
45643;DHT22;31358;46.008;11.144;2023-05-10T00:43:04;14.60;99.90
45643;DHT22;31358;46.008;11.144;2023-05-10T00:45:31;14.60;99.90
45643;DHT22;31358;46.008;11.144;2023-05-10T00:47:58;14.40;99.90
45643;DHT22;31358;46.008;11.144;2023-05-10T00:50:25;14.40;99.90
45643;DHT22;31358;46.008;11.144;2023-05-10T00:52:51;14.20;99.90
45643;DHT22;31358;46.008;11.144;2023-05-10T00:55:18;14.20;99.90
45643;DHT22;31358;46.008;11.144;2023-05-10T00:57:44;14.20;99.90
45643;DHT22;31358;46.008;11.144;2023-05-10T01:00:10;14.10;99.90
45643;DHT22;31358;46.008;11.144;2023-05-10T01:02:36;14.20;99.90
45643;DHT22;31358;46.008;11.144;2023-05-10T01:05:02;14.30;99.90
45643;DHT22;31358;46.008;11.144;2023-05-10T01:07:31;14.30;99.90
45643;DHT22;31358;46.008;11.144;2023-05-10T01:09:57;14.20;99.90
45643;DHT22;31358;46.008;11.144;2023-05-10T01:12:23;14.50;99.90
45643;DHT22;31358;46.008;11.144;2023-05-10T01:14:49;14.50;99.90
45643;DHT22;31358;46.008;11.144;2023-05-10T01:17:15;14.30;99.90
45643;DHT22;31358;46.008;11.144;2023-05-10T01:19:41;14.10;99.90
45643;DHT22;31358;46.008;11.144;2023-05-10T01:33:35;13.80;99.90
45643;DHT22;31358;46.008;11.144;2023-05-10T01:38:51;13.90;99.90
45643;DHT22;31358;46.008;11.144;2023-05-10T01:41:48;13.80;99.90
45643;DHT22;31358;46.008;11.144;2023-05-10T01:44:20;13.70;99.90
45643;DHT22;31358;46.008;11.144;2023-05-10T01:46:56;13.60;99.90
45643;DHT22;31358;46.008;11.144;2023-05-10T01:49:30;13.50;99.90
45643;DHT22;31358;46.008;11.144;2023-05-10T01:52:02;13.40;99.90
45643;DHT22;31358;46.008;11.144;2023-05-10T01:54:30;13.40;99.90
45643;DHT22;31358;46.008;11.144;2023-05-10T01:57:05;13.40;99.90
45643;DHT22;31358;46.008;11.144;2023-05-10T01:59:36;13.40;99.90
45643;DHT22;31358;46.008;11.144;2023-05-10T02:02:07;13.50;99.90
45643;DHT22;31358;46.008;11.144;2023-05-10T02:04:38;13.60;99.90
45643;DHT22;31358;46.008;11.144;2023-05-10T02:07:06;13.50;99.90
45643;DHT22;31358;46.008;11.144;2023-05-10T02:09:33;13.10;99.90
45643;DHT22;31358;46.008;11.144;2023-05-10T02:12:01;13.10;99.90
45643;DHT22;31358;46.008;11.144;2023-05-10T02:14:30;13.30;99.90
45643;DHT22;31358;46.008;11.144;2023-05-10T02:16:58;13.40;99.90
45643;DHT22;31358;46.008;11.144;2023-05-10T02:19:26;13.40;99.90
45643;DHT22;31358;46.008;11.144;2023-05-10T02:21:55;13.30;99.90
45643;DHT22;31358;46.008;11.144;2023-05-10T02:24:21;13.20;99.90
45643;DHT22;31358;46.008;11.144;2023-05-10T02:26:48;13.30;99.90
45643;DHT22;31358;46.008;11.144;2023-05-10T02:29:16;13.20;99.90
45643;DHT22;31358;46.008;11.144;2023-05-10T02:31:42;13.10;99.90
45643;DHT22;31358;46.008;11.144;2023-05-10T02:34:09;13.10;99.90
45643;DHT22;31358;46.008;11.144;2023-05-10T02:36:38;13.10;99.90
45643;DHT22;31358;46.008;11.144;2023-05-10T02:39:06;13.00;99.90
45643;DHT22;31358;46.008;11.144;2023-05-10T02:41:40;13.00;99.90
45643;DHT22;31358;46.008;11.144;2023-05-10T02:44:06;13.10;99.90
45643;DHT22;31358;46.008;11.144;2023-05-10T02:46:33;13.10;99.90
45643;DHT22;31358;46.008;11.144;2023-05-10T02:49:00;13.00;99.90
45643;DHT22;31358;46.008;11.144;2023-05-10T02:51:30;12.80;99.90
45643;DHT22;31358;46.008;11.144;2023-05-10T02:53:57;12.90;99.90
45643;DHT22;31358;46.008;11.144;2023-05-10T02:56:29;12.80;99.90
45643;DHT22;31358;46.008;11.144;2023-05-10T02:58:57;12.80;99.90
45643;DHT22;31358;46.008;11.144;2023-05-10T03:01:23;12.90;99.90
45643;DHT22;31358;46.008;11.144;2023-05-10T03:03:49;12.80;99.90
45643;DHT22;31358;46.008;11.144;2023-05-10T03:06:14;13.00;99.90
45643;DHT22;31358;46.008;11.144;2023-05-10T03:08:42;13.00;99.90
45643;DHT22;31358;46.008;11.144;2023-05-10T03:19:34;12.90;99.90
45643;DHT22;31358;46.008;11.144;2023-05-10T03:22:06;13.00;99.90
45643;DHT22;31358;46.008;11.144;2023-05-10T03:24:35;13.00;99.90
45643;DHT22;31358;46.008;11.144;2023-05-10T03:27:01;12.90;99.90
45643;DHT22;31358;46.008;11.144;2023-05-10T03:29:30;12.70;99.90
45643;DHT22;31358;46.008;11.144;2023-05-10T03:31:58;12.60;99.90
45643;DHT22;31358;46.008;11.144;2023-05-10T03:34:24;12.50;99.90
45643;DHT22;31358;46.008;11.144;2023-05-10T03:36:50;12.50;99.90
45643;DHT22;31358;46.008;11.144;2023-05-10T03:39:16;12.60;99.90
45643;DHT22;31358;46.008;11.144;2023-05-10T03:41:42;12.60;99.90
45643;DHT22;31358;46.008;11.144;2023-05-10T03:44:07;12.40;99.90
45643;DHT22;31358;46.008;11.144;2023-05-10T03:46:33;12.50;99.90
45643;DHT22;31358;46.008;11.144;2023-05-10T03:48:59;12.50;99.90
45643;DHT22;31358;46.008;11.144;2023-05-10T03:51:24;12.60;99.90
45643;DHT22;31358;46.008;11.144;2023-05-10T03:53:54;12.60;99.90
45643;DHT22;31358;46.008;11.144;2023-05-10T03:56:20;12.60;99.90
45643;DHT22;31358;46.008;11.144;2023-05-10T03:58:46;12.50;99.90
45643;DHT22;31358;46.008;11.144;2023-05-10T04:01:12;12.60;99.90
45643;DHT22;31358;46.008;11.144;2023-05-10T04:03:37;12.40;99.90
45643;DHT22;31358;46.008;11.144;2023-05-10T04:06:04;12.40;99.90
45643;DHT22;31358;46.008;11.144;2023-05-10T04:08:30;12.50;99.90
45643;DHT22;31358;46.008;11.144;2023-05-10T04:11:05;12.50;99.90
45643;DHT22;31358;46.008;11.144;2023-05-10T04:13:32;12.50;99.90
45643;DHT22;31358;46.008;11.144;2023-05-10T04:15:57;12.50;99.90
45643;DHT22;31358;46.008;11.144;2023-05-10T04:18:23;12.40;99.90
45643;DHT22;31358;46.008;11.144;2023-05-10T04:20:49;12.50;99.90
45643;DHT22;31358;46.008;11.144;2023-05-10T04:23:14;12.40;99.90
45643;DHT22;31358;46.008;11.144;2023-05-10T04:25:42;12.40;99.90
45643;DHT22;31358;46.008;11.144;2023-05-10T04:28:08;12.30;99.90
45643;DHT22;31358;46.008;11.144;2023-05-10T04:30:34;12.20;99.90
45643;DHT22;31358;46.008;11.144;2023-05-10T04:33:00;12.30;99.90
45643;DHT22;31358;46.008;11.144;2023-05-10T04:35:27;12.50;99.90
45643;DHT22;31358;46.008;11.144;2023-05-10T04:37:53;12.60;99.90
45643;DHT22;31358;46.008;11.144;2023-05-10T04:40:19;12.50;99.90
45643;DHT22;31358;46.008;11.144;2023-05-10T04:42:45;12.30;99.90
45643;DHT22;31358;46.008;11.144;2023-05-10T04:45:12;12.30;99.90
45643;DHT22;31358;46.008;11.144;2023-05-10T04:47:37;12.30;99.90
45643;DHT22;31358;46.008;11.144;2023-05-10T04:50:04;12.30;99.90
45643;DHT22;31358;46.008;11.144;2023-05-10T04:52:29;12.30;99.90
45643;DHT22;31358;46.008;11.144;2023-05-10T04:54:55;12.30;99.90
45643;DHT22;31358;46.008;11.144;2023-05-10T04:57:21;12.20;99.90
45643;DHT22;31358;46.008;11.144;2023-05-10T04:59:48;12.20;99.90
45643;DHT22;31358;46.008;11.144;2023-05-10T05:02:13;12.30;99.90
45643;DHT22;31358;46.008;11.144;2023-05-10T05:04:39;12.40;99.90
45643;DHT22;31358;46.008;11.144;2023-05-10T05:07:04;12.40;99.90
45643;DHT22;31358;46.008;11.144;2023-05-10T05:09:30;12.50;99.90
45643;DHT22;31358;46.008;11.144;2023-05-10T05:11:57;12.50;99.90
45643;DHT22;31358;46.008;11.144;2023-05-10T05:14:23;12.40;99.90
45643;DHT22;31358;46.008;11.144;2023-05-10T05:16:53;12.40;99.90
45643;DHT22;31358;46.008;11.144;2023-05-10T05:19:18;12.40;99.90
45643;DHT22;31358;46.008;11.144;2023-05-10T05:21:44;12.40;99.90
45643;DHT22;31358;46.008;11.144;2023-05-10T05:24:10;12.40;99.90
45643;DHT22;31358;46.008;11.144;2023-05-10T05:26:38;12.40;99.90
45643;DHT22;31358;46.008;11.144;2023-05-10T05:29:03;12.50;99.90
45643;DHT22;31358;46.008;11.144;2023-05-10T05:31:29;12.40;99.90
45643;DHT22;31358;46.008;11.144;2023-05-10T05:33:55;12.50;99.90
45643;DHT22;31358;46.008;11.144;2023-05-10T05:36:21;12.50;99.90
45643;DHT22;31358;46.008;11.144;2023-05-10T05:38:47;12.50;99.90
45643;DHT22;31358;46.008;11.144;2023-05-10T05:41:13;12.60;99.90
45643;DHT22;31358;46.008;11.144;2023-05-10T05:43:38;12.70;99.90
45643;DHT22;31358;46.008;11.144;2023-05-10T05:46:04;12.60;99.90
45643;DHT22;31358;46.008;11.144;2023-05-10T05:48:31;12.60;99.90
45643;DHT22;31358;46.008;11.144;2023-05-10T05:50:57;12.80;99.90
45643;DHT22;31358;46.008;11.144;2023-05-10T05:53:23;12.70;99.90
45643;DHT22;31358;46.008;11.144;2023-05-10T05:55:55;12.70;99.90
45643;DHT22;31358;46.008;11.144;2023-05-10T05:58:22;12.70;99.90
45643;DHT22;31358;46.008;11.144;2023-05-10T06:00:48;12.70;99.90
45643;DHT22;31358;46.008;11.144;2023-05-10T06:03:14;12.70;99.90
45643;DHT22;31358;46.008;11.144;2023-05-10T06:05:39;12.70;99.90
45643;DHT22;31358;46.008;11.144;2023-05-10T06:08:05;12.50;99.90
45643;DHT22;31358;46.008;11.144;2023-05-10T06:10:31;12.60;99.90
45643;DHT22;31358;46.008;11.144;2023-05-10T06:12:56;12.70;99.90
45643;DHT22;31358;46.008;11.144;2023-05-10T06:15:22;12.70;99.90
45643;DHT22;31358;46.008;11.144;2023-05-10T06:17:48;12.80;99.90
45643;DHT22;31358;46.008;11.144;2023-05-10T06:20:15;12.80;99.90
45643;DHT22;31358;46.008;11.144;2023-05-10T06:22:41;12.70;99.90
45643;DHT22;31358;46.008;11.144;2023-05-10T06:25:07;12.70;99.90
45643;DHT22;31358;46.008;11.144;2023-05-10T06:27:33;12.60;99.90
45643;DHT22;31358;46.008;11.144;2023-05-10T06:29:59;12.70;99.90
45643;DHT22;31358;46.008;11.144;2023-05-10T06:32:25;12.70;99.90
45643;DHT22;31358;46.008;11.144;2023-05-10T06:34:50;12.70;99.90
45643;DHT22;31358;46.008;11.144;2023-05-10T06:37:16;12.70;99.90
45643;DHT22;31358;46.008;11.144;2023-05-10T06:39:42;12.70;99.90
45643;DHT22;31358;46.008;11.144;2023-05-10T06:42:07;12.60;99.90
45643;DHT22;31358;46.008;11.144;2023-05-10T06:44:33;12.70;99.90
45643;DHT22;31358;46.008;11.144;2023-05-10T06:46:59;12.70;99.90
45643;DHT22;31358;46.008;11.144;2023-05-10T06:49:24;12.70;99.90
45643;DHT22;31358;46.008;11.144;2023-05-10T06:51:50;12.60;99.90
45643;DHT22;31358;46.008;11.144;2023-05-10T06:54:16;12.70;99.90
45643;DHT22;31358;46.008;11.144;2023-05-10T06:56:42;12.70;99.90
45643;DHT22;31358;46.008;11.144;2023-05-10T06:59:07;12.70;99.90
45643;DHT22;31358;46.008;11.144;2023-05-10T07:01:33;12.70;99.90
45643;DHT22;31358;46.008;11.144;2023-05-10T07:03:59;12.70;99.90
45643;DHT22;31358;46.008;11.144;2023-05-10T07:06:24;12.60;99.90
45643;DHT22;31358;46.008;11.144;2023-05-10T07:08:50;12.60;99.90
45643;DHT22;31358;46.008;11.144;2023-05-10T07:11:16;12.70;99.90
45643;DHT22;31358;46.008;11.144;2023-05-10T07:13:41;12.70;99.90
45643;DHT22;31358;46.008;11.144;2023-05-10T07:16:09;12.80;99.90
45643;DHT22;31358;46.008;11.144;2023-05-10T07:18:35;12.80;99.90
45643;DHT22;31358;46.008;11.144;2023-05-10T07:21:01;12.60;99.90
45643;DHT22;31358;46.008;11.144;2023-05-10T07:23:27;12.60;99.90
45643;DHT22;31358;46.008;11.144;2023-05-10T07:25:53;12.60;99.90
45643;DHT22;31358;46.008;11.144;2023-05-10T07:28:19;12.60;99.90
45643;DHT22;31358;46.008;11.144;2023-05-10T07:30:45;12.60;99.90
45643;DHT22;31358;46.008;11.144;2023-05-10T07:33:13;12.70;99.90
45643;DHT22;31358;46.008;11.144;2023-05-10T07:35:38;12.70;99.90
45643;DHT22;31358;46.008;11.144;2023-05-10T07:38:04;12.70;99.90
45643;DHT22;31358;46.008;11.144;2023-05-10T07:40:30;12.60;99.90
45643;DHT22;31358;46.008;11.144;2023-05-10T07:42:56;12.60;99.90
45643;DHT22;31358;46.008;11.144;2023-05-10T07:45:22;12.60;99.90
45643;DHT22;31358;46.008;11.144;2023-05-10T07:47:48;12.50;99.90
45643;DHT22;31358;46.008;11.144;2023-05-10T07:50:14;12.60;99.90
45643;DHT22;31358;46.008;11.144;2023-05-10T07:52:40;12.70;99.90
45643;DHT22;31358;46.008;11.144;2023-05-10T07:55:06;12.70;99.90
45643;DHT22;31358;46.008;11.144;2023-05-10T07:57:33;12.50;99.90
45643;DHT22;31358;46.008;11.144;2023-05-10T07:59:59;12.50;99.90
45643;DHT22;31358;46.008;11.144;2023-05-10T08:02:25;12.50;99.90
45643;DHT22;31358;46.008;11.144;2023-05-10T08:04:50;12.40;99.90
45643;DHT22;31358;46.008;11.144;2023-05-10T08:07:17;12.40;99.90
45643;DHT22;31358;46.008;11.144;2023-05-10T08:09:42;12.40;99.90
45643;DHT22;31358;46.008;11.144;2023-05-10T08:12:08;12.40;99.90
45643;DHT22;31358;46.008;11.144;2023-05-10T08:14:34;12.50;99.90
45643;DHT22;31358;46.008;11.144;2023-05-10T08:17:02;12.50;99.90
45643;DHT22;31358;46.008;11.144;2023-05-10T08:19:28;12.50;99.90
45643;DHT22;31358;46.008;11.144;2023-05-10T08:21:54;12.50;99.90
45643;DHT22;31358;46.008;11.144;2023-05-10T08:24:21;12.50;99.90
45643;DHT22;31358;46.008;11.144;2023-05-10T08:26:47;12.60;99.90
45643;DHT22;31358;46.008;11.144;2023-05-10T08:29:13;12.70;99.90
45643;DHT22;31358;46.008;11.144;2023-05-10T08:31:39;12.70;99.90
45643;DHT22;31358;46.008;11.144;2023-05-10T08:34:05;12.60;99.90
45643;DHT22;31358;46.008;11.144;2023-05-10T08:36:30;12.60;99.90
45643;DHT22;31358;46.008;11.144;2023-05-10T08:38:57;12.50;99.90
45643;DHT22;31358;46.008;11.144;2023-05-10T08:41:24;12.50;99.90
45643;DHT22;31358;46.008;11.144;2023-05-10T08:43:52;12.50;99.90
45643;DHT22;31358;46.008;11.144;2023-05-10T08:46:20;12.50;99.90
45643;DHT22;31358;46.008;11.144;2023-05-10T08:48:46;12.60;99.90
45643;DHT22;31358;46.008;11.144;2023-05-10T08:51:22;12.60;99.90
45643;DHT22;31358;46.008;11.144;2023-05-10T08:53:47;12.70;99.90
45643;DHT22;31358;46.008;11.144;2023-05-10T08:56:13;12.60;99.90
45643;DHT22;31358;46.008;11.144;2023-05-10T08:58:41;12.70;99.90
45643;DHT22;31358;46.008;11.144;2023-05-10T09:01:07;12.70;99.90
45643;DHT22;31358;46.008;11.144;2023-05-10T09:03:34;12.70;99.90
45643;DHT22;31358;46.008;11.144;2023-05-10T09:06:00;12.60;99.90
45643;DHT22;31358;46.008;11.144;2023-05-10T09:08:26;12.60;99.90
45643;DHT22;31358;46.008;11.144;2023-05-10T09:10:54;12.70;99.90
45643;DHT22;31358;46.008;11.144;2023-05-10T09:13:21;12.70;99.90
45643;DHT22;31358;46.008;11.144;2023-05-10T09:15:47;12.70;99.90
45643;DHT22;31358;46.008;11.144;2023-05-10T09:18:13;12.80;99.90
45643;DHT22;31358;46.008;11.144;2023-05-10T09:20:39;12.80;99.90
45643;DHT22;31358;46.008;11.144;2023-05-10T09:23:05;12.80;99.90
45643;DHT22;31358;46.008;11.144;2023-05-10T09:25:31;12.80;99.90
45643;DHT22;31358;46.008;11.144;2023-05-10T09:27:59;12.80;99.90
45643;DHT22;31358;46.008;11.144;2023-05-10T09:30:29;12.80;99.90
45643;DHT22;31358;46.008;11.144;2023-05-10T09:32:56;12.90;99.90
45643;DHT22;31358;46.008;11.144;2023-05-10T09:35:24;12.90;99.90
45643;DHT22;31358;46.008;11.144;2023-05-10T09:37:51;12.90;99.90
45643;DHT22;31358;46.008;11.144;2023-05-10T09:40:23;12.90;99.90
45643;DHT22;31358;46.008;11.144;2023-05-10T09:42:57;12.90;99.90
45643;DHT22;31358;46.008;11.144;2023-05-10T09:45:24;12.90;99.90
45643;DHT22;31358;46.008;11.144;2023-05-10T09:47:50;12.90;99.90
45643;DHT22;31358;46.008;11.144;2023-05-10T09:50:16;13.00;99.90
45643;DHT22;31358;46.008;11.144;2023-05-10T09:52:58;13.00;99.90
45643;DHT22;31358;46.008;11.144;2023-05-10T09:55:43;13.00;99.90
45643;DHT22;31358;46.008;11.144;2023-05-10T09:58:10;12.90;99.90
45643;DHT22;31358;46.008;11.144;2023-05-10T10:00:40;13.00;99.90
45643;DHT22;31358;46.008;11.144;2023-05-10T10:03:07;12.90;99.90
45643;DHT22;31358;46.008;11.144;2023-05-10T10:05:40;13.00;99.90
45643;DHT22;31358;46.008;11.144;2023-05-10T10:08:06;13.00;99.90
45643;DHT22;31358;46.008;11.144;2023-05-10T10:10:33;13.00;99.90
45643;DHT22;31358;46.008;11.144;2023-05-10T10:12:59;13.10;99.90
45643;DHT22;31358;46.008;11.144;2023-05-10T10:15:25;13.10;99.90
45643;DHT22;31358;46.008;11.144;2023-05-10T10:17:52;13.10;99.90
45643;DHT22;31358;46.008;11.144;2023-05-10T10:20:19;13.10;99.90
45643;DHT22;31358;46.008;11.144;2023-05-10T10:22:46;13.20;99.90
45643;DHT22;31358;46.008;11.144;2023-05-10T10:25:14;13.10;99.90
45643;DHT22;31358;46.008;11.144;2023-05-10T10:27:56;13.10;99.90
45643;DHT22;31358;46.008;11.144;2023-05-10T10:35:46;13.10;99.90
45643;DHT22;31358;46.008;11.144;2023-05-10T10:38:12;13.10;99.90
45643;DHT22;31358;46.008;11.144;2023-05-10T10:40:38;13.10;99.90
45643;DHT22;31358;46.008;11.144;2023-05-10T10:43:26;13.10;99.90
45643;DHT22;31358;46.008;11.144;2023-05-10T10:46:12;13.20;99.90
45643;DHT22;31358;46.008;11.144;2023-05-10T10:48:48;13.20;99.90
45643;DHT22;31358;46.008;11.144;2023-05-10T10:51:14;13.20;99.90
45643;DHT22;31358;46.008;11.144;2023-05-10T10:53:40;13.20;99.90
45643;DHT22;31358;46.008;11.144;2023-05-10T10:56:11;13.20;99.90
45643;DHT22;31358;46.008;11.144;2023-05-10T10:58:39;13.20;99.90
45643;DHT22;31358;46.008;11.144;2023-05-10T11:01:16;13.10;99.90
45643;DHT22;31358;46.008;11.144;2023-05-10T11:06:36;13.10;99.90
45643;DHT22;31358;46.008;11.144;2023-05-10T11:09:10;13.20;99.90
45643;DHT22;31358;46.008;11.144;2023-05-10T11:11:48;13.20;99.90
45643;DHT22;31358;46.008;11.144;2023-05-10T11:14:14;13.20;99.90
45643;DHT22;31358;46.008;11.144;2023-05-10T11:16:45;13.30;99.90
45643;DHT22;31358;46.008;11.144;2023-05-10T11:19:12;13.30;99.90
45643;DHT22;31358;46.008;11.144;2023-05-10T11:21:47;13.30;99.90
45643;DHT22;31358;46.008;11.144;2023-05-10T11:24:19;13.30;99.90
45643;DHT22;31358;46.008;11.144;2023-05-10T11:26:45;13.50;99.90
45643;DHT22;31358;46.008;11.144;2023-05-10T11:29:13;13.50;99.90
45643;DHT22;31358;46.008;11.144;2023-05-10T11:31:45;13.50;99.90
45643;DHT22;31358;46.008;11.144;2023-05-10T11:34:26;13.50;99.90
45643;DHT22;31358;46.008;11.144;2023-05-10T11:36:53;13.60;99.90
45643;DHT22;31358;46.008;11.144;2023-05-10T11:39:19;13.50;99.90
45643;DHT22;31358;46.008;11.144;2023-05-10T11:41:48;13.50;99.90
45643;DHT22;31358;46.008;11.144;2023-05-10T11:44:14;13.50;99.90
45643;DHT22;31358;46.008;11.144;2023-05-10T11:46:40;13.50;99.90
45643;DHT22;31358;46.008;11.144;2023-05-10T11:49:07;13.50;99.90
45643;DHT22;31358;46.008;11.144;2023-05-10T11:51:34;13.60;99.90
45643;DHT22;31358;46.008;11.144;2023-05-10T11:54:09;13.60;99.90
45643;DHT22;31358;46.008;11.144;2023-05-10T11:56:35;13.70;99.90
45643;DHT22;31358;46.008;11.144;2023-05-10T11:59:01;13.70;99.90
45643;DHT22;31358;46.008;11.144;2023-05-10T12:01:28;13.70;99.90
45643;DHT22;31358;46.008;11.144;2023-05-10T12:03:56;13.90;99.90
45643;DHT22;31358;46.008;11.144;2023-05-10T12:06:30;13.90;99.90
45643;DHT22;31358;46.008;11.144;2023-05-10T12:08:57;13.80;99.90
45643;DHT22;31358;46.008;11.144;2023-05-10T12:11:27;13.80;99.90
45643;DHT22;31358;46.008;11.144;2023-05-10T12:13:54;13.60;99.90
45643;DHT22;31358;46.008;11.144;2023-05-10T12:16:25;13.50;99.90
45643;DHT22;31358;46.008;11.144;2023-05-10T12:18:56;13.50;99.90
45643;DHT22;31358;46.008;11.144;2023-05-10T12:21:22;13.60;99.90
45643;DHT22;31358;46.008;11.144;2023-05-10T12:24:08;13.40;99.90
45643;DHT22;31358;46.008;11.144;2023-05-10T12:26:35;13.30;99.90
45643;DHT22;31358;46.008;11.144;2023-05-10T12:29:19;13.40;99.90
45643;DHT22;31358;46.008;11.144;2023-05-10T12:31:56;13.30;99.90
45643;DHT22;31358;46.008;11.144;2023-05-10T12:36:54;13.30;99.90
45643;DHT22;31358;46.008;11.144;2023-05-10T12:39:20;13.50;99.90
45643;DHT22;31358;46.008;11.144;2023-05-10T12:41:45;13.60;99.90
45643;DHT22;31358;46.008;11.144;2023-05-10T12:44:11;13.50;99.90
45643;DHT22;31358;46.008;11.144;2023-05-10T12:46:37;13.60;99.90
45643;DHT22;31358;46.008;11.144;2023-05-10T12:49:03;13.70;99.90
45643;DHT22;31358;46.008;11.144;2023-05-10T12:51:28;13.80;99.90
45643;DHT22;31358;46.008;11.144;2023-05-10T12:53:54;13.80;99.90
45643;DHT22;31358;46.008;11.144;2023-05-10T12:56:20;13.90;99.90
45643;DHT22;31358;46.008;11.144;2023-05-10T12:58:46;13.90;99.90
45643;DHT22;31358;46.008;11.144;2023-05-10T13:01:14;13.90;99.90
45643;DHT22;31358;46.008;11.144;2023-05-10T13:03:40;13.80;99.90
45643;DHT22;31358;46.008;11.144;2023-05-10T13:06:05;13.80;99.90
45643;DHT22;31358;46.008;11.144;2023-05-10T13:08:32;13.70;99.90
45643;DHT22;31358;46.008;11.144;2023-05-10T13:11:02;13.80;99.90
45643;DHT22;31358;46.008;11.144;2023-05-10T13:13:28;13.90;99.90
45643;DHT22;31358;46.008;11.144;2023-05-10T13:15:54;13.80;99.90
45643;DHT22;31358;46.008;11.144;2023-05-10T13:18:19;13.60;99.90
45643;DHT22;31358;46.008;11.144;2023-05-10T13:20:45;13.70;99.90
45643;DHT22;31358;46.008;11.144;2023-05-10T13:23:11;13.50;99.90
45643;DHT22;31358;46.008;11.144;2023-05-10T13:25:37;13.60;99.90
45643;DHT22;31358;46.008;11.144;2023-05-10T13:28:03;13.60;99.90
45643;DHT22;31358;46.008;11.144;2023-05-10T13:30:28;13.50;99.90
45643;DHT22;31358;46.008;11.144;2023-05-10T13:32:54;13.30;99.90
45643;DHT22;31358;46.008;11.144;2023-05-10T13:35:20;13.40;99.90
45643;DHT22;31358;46.008;11.144;2023-05-10T13:37:46;13.30;99.90
45643;DHT22;31358;46.008;11.144;2023-05-10T13:40:12;13.30;99.90
45643;DHT22;31358;46.008;11.144;2023-05-10T13:42:38;13.30;99.90
45643;DHT22;31358;46.008;11.144;2023-05-10T13:45:04;13.20;99.90
45643;DHT22;31358;46.008;11.144;2023-05-10T13:47:30;13.30;99.90
45643;DHT22;31358;46.008;11.144;2023-05-10T13:49:56;13.40;99.90
45643;DHT22;31358;46.008;11.144;2023-05-10T13:52:22;13.30;99.90
45643;DHT22;31358;46.008;11.144;2023-05-10T13:54:48;13.30;99.90
45643;DHT22;31358;46.008;11.144;2023-05-10T13:57:14;13.20;99.90
45643;DHT22;31358;46.008;11.144;2023-05-10T13:59:42;13.20;99.90
45643;DHT22;31358;46.008;11.144;2023-05-10T14:02:07;13.20;99.90
45643;DHT22;31358;46.008;11.144;2023-05-10T14:04:33;13.20;99.90
45643;DHT22;31358;46.008;11.144;2023-05-10T14:07:00;13.10;99.90
45643;DHT22;31358;46.008;11.144;2023-05-10T14:09:26;13.30;99.90
45643;DHT22;31358;46.008;11.144;2023-05-10T14:11:52;13.20;99.90
45643;DHT22;31358;46.008;11.144;2023-05-10T14:14:17;13.20;99.90
45643;DHT22;31358;46.008;11.144;2023-05-10T14:16:44;13.30;99.90
45643;DHT22;31358;46.008;11.144;2023-05-10T14:19:10;13.30;99.90
45643;DHT22;31358;46.008;11.144;2023-05-10T14:21:36;13.30;99.90
45643;DHT22;31358;46.008;11.144;2023-05-10T14:24:02;13.30;99.90
45643;DHT22;31358;46.008;11.144;2023-05-10T14:26:28;13.30;99.90
45643;DHT22;31358;46.008;11.144;2023-05-10T14:28:53;13.40;99.90
45643;DHT22;31358;46.008;11.144;2023-05-10T14:31:19;13.50;99.90
45643;DHT22;31358;46.008;11.144;2023-05-10T14:33:46;13.50;99.90
45643;DHT22;31358;46.008;11.144;2023-05-10T14:36:12;13.20;99.90
45643;DHT22;31358;46.008;11.144;2023-05-10T14:38:38;13.20;99.90
45643;DHT22;31358;46.008;11.144;2023-05-10T14:41:04;13.20;99.90
45643;DHT22;31358;46.008;11.144;2023-05-10T14:43:30;13.30;99.90
45643;DHT22;31358;46.008;11.144;2023-05-10T14:45:56;13.40;99.90
45643;DHT22;31358;46.008;11.144;2023-05-10T14:48:21;13.40;99.90
45643;DHT22;31358;46.008;11.144;2023-05-10T14:50:47;13.30;99.90
45643;DHT22;31358;46.008;11.144;2023-05-10T14:53:15;13.50;99.90
45643;DHT22;31358;46.008;11.144;2023-05-10T14:55:40;13.40;99.90
45643;DHT22;31358;46.008;11.144;2023-05-10T14:58:06;13.40;99.90
45643;DHT22;31358;46.008;11.144;2023-05-10T15:00:32;13.30;99.90
45643;DHT22;31358;46.008;11.144;2023-05-10T15:02:57;13.30;99.90
45643;DHT22;31358;46.008;11.144;2023-05-10T15:05:23;13.10;99.90
45643;DHT22;31358;46.008;11.144;2023-05-10T15:07:49;13.20;99.90
45643;DHT22;31358;46.008;11.144;2023-05-10T15:10:15;13.30;99.90
45643;DHT22;31358;46.008;11.144;2023-05-10T15:12:40;13.20;99.90
45643;DHT22;31358;46.008;11.144;2023-05-10T15:15:07;13.20;99.90
45643;DHT22;31358;46.008;11.144;2023-05-10T15:17:33;13.10;99.90
45643;DHT22;31358;46.008;11.144;2023-05-10T15:19:59;13.10;99.90
45643;DHT22;31358;46.008;11.144;2023-05-10T15:22:25;13.00;99.90
45643;DHT22;31358;46.008;11.144;2023-05-10T15:24:51;13.00;99.90
45643;DHT22;31358;46.008;11.144;2023-05-10T15:27:16;12.90;99.90
45643;DHT22;31358;46.008;11.144;2023-05-10T15:29:42;13.00;99.90
45643;DHT22;31358;46.008;11.144;2023-05-10T15:32:08;12.90;99.90
45643;DHT22;31358;46.008;11.144;2023-05-10T15:34:33;12.90;99.90
45643;DHT22;31358;46.008;11.144;2023-05-10T15:36:59;12.80;99.90
45643;DHT22;31358;46.008;11.144;2023-05-10T15:39:25;12.80;99.90
45643;DHT22;31358;46.008;11.144;2023-05-10T15:41:50;12.80;99.90
45643;DHT22;31358;46.008;11.144;2023-05-10T15:44:16;12.80;99.90
45643;DHT22;31358;46.008;11.144;2023-05-10T15:46:43;12.70;99.90
45643;DHT22;31358;46.008;11.144;2023-05-10T15:49:09;12.80;99.90